createdAt,value
2019-01-05T00:01:20.801Z,9.94
2019-01-05T00:04:01.903Z,9.96
2019-01-05T00:06:42.846Z,9.91
2019-01-05T00:09:23.529Z,9.84
2019-01-05T00:12:04.323Z,9.82
2019-01-05T00:14:45.250Z,9.75
2019-01-05T00:17:25.790Z,9.91
2019-01-05T00:20:06.235Z,9.88
2019-01-05T00:22:46.628Z,9.82
2019-01-05T00:25:28.109Z,9.75
2019-01-05T00:28:08.764Z,9.87
2019-01-05T00:30:49.657Z,9.71
2019-01-05T00:33:30.412Z,9.66
2019-01-05T00:36:11.855Z,9.49
2019-01-05T00:38:52.685Z,9.55
2019-01-05T00:41:33.444Z,9.58
2019-01-05T00:44:14.522Z,9.63
2019-01-05T00:46:55.553Z,9.67
2019-01-05T00:49:36.667Z,9.70
2019-01-05T00:52:17.348Z,9.85
2019-01-05T00:54:58.621Z,9.76
2019-01-05T00:57:39.694Z,9.87
2019-01-05T01:00:20.466Z,10.00
2019-01-05T01:03:00.940Z,9.99
2019-01-05T01:05:42.100Z,9.83
2019-01-05T01:08:22.768Z,9.86
2019-01-05T01:11:03.390Z,9.83
2019-01-05T01:13:44.652Z,9.82
2019-01-05T01:16:25.488Z,9.69
2019-01-05T01:19:06.348Z,9.61
2019-01-05T01:21:47.092Z,9.70
2019-01-05T01:24:28.505Z,9.78
2019-01-05T01:27:09.473Z,9.89
2019-01-05T01:29:50.427Z,9.97
2019-01-05T01:32:31.237Z,10.03
2019-01-05T01:35:11.910Z,10.06
2019-01-05T01:37:52.811Z,10.15
2019-01-05T01:40:34.304Z,10.31
2019-01-05T01:43:15.049Z,10.46
2019-01-05T01:45:56.183Z,10.68
2019-01-05T01:48:36.982Z,10.92
2019-01-05T01:51:17.890Z,11.05
2019-01-05T01:53:58.902Z,11.12
2019-01-05T01:56:39.380Z,11.31
2019-01-05T01:59:20.272Z,11.46
2019-01-05T02:02:00.874Z,11.66
2019-01-05T02:04:41.566Z,11.89
2019-01-05T02:07:22.341Z,12.12
2019-01-05T02:10:03.543Z,12.35
2019-01-05T02:12:44.528Z,12.54
2019-01-05T02:15:25.066Z,12.74
2019-01-05T02:18:06.124Z,12.98
2019-01-05T02:20:47.383Z,13.27
2019-01-05T02:23:28.288Z,13.61
2019-01-05T02:26:09.420Z,14.18
2019-01-05T02:28:50.279Z,14.71
2019-01-05T02:31:31.237Z,15.25
2019-01-05T02:34:11.971Z,15.82
2019-01-05T02:36:52.826Z,16.38
2019-01-05T02:39:33.787Z,16.83
2019-01-05T02:42:15.149Z,17.19
2019-01-05T02:44:56.064Z,17.59
2019-01-05T02:47:36.984Z,17.84
2019-01-05T02:50:18.064Z,18.08
2019-01-05T02:52:58.990Z,18.38
2019-01-05T02:55:39.464Z,18.58
2019-01-05T02:58:19.593Z,18.59
2019-01-05T03:01:00.516Z,18.58
2019-01-05T03:03:41.555Z,18.83
2019-01-05T03:06:22.565Z,19.24
2019-01-05T03:09:03.754Z,19.58
2019-01-05T03:11:43.822Z,19.89
2019-01-05T03:14:24.260Z,20.02
2019-01-05T03:17:04.888Z,20.20
2019-01-05T03:19:45.580Z,20.08
2019-01-05T03:22:26.124Z,20.29
2019-01-05T03:25:06.054Z,20.35
2019-01-05T03:27:46.634Z,20.40
2019-01-05T03:30:27.539Z,20.62
2019-01-05T03:33:08.584Z,20.73
2019-01-05T03:35:49.242Z,20.88
2019-01-05T03:38:30.455Z,20.79
2019-01-05T03:41:11.121Z,20.66
2019-01-05T03:43:52.345Z,20.49
2019-01-05T03:46:33.303Z,20.29
2019-01-05T03:49:14.565Z,19.89
2019-01-05T03:51:55.607Z,20.09
2019-01-05T03:54:36.573Z,20.48
2019-01-05T03:57:17.344Z,20.97
2019-01-05T03:59:58.537Z,21.29
2019-01-05T04:02:39.790Z,21.59
2019-01-05T04:05:20.989Z,21.79
2019-01-05T04:08:02.260Z,21.73
2019-01-05T04:10:43.201Z,21.39
2019-01-05T04:13:23.453Z,22.01
2019-01-05T04:16:04.025Z,22.33
2019-01-05T04:18:44.896Z,22.59
2019-01-05T04:21:26.107Z,22.32
2019-01-05T04:24:07.092Z,22.59
2019-01-05T04:26:48.011Z,22.62
2019-01-05T04:29:29.301Z,22.95
2019-01-05T04:32:10.142Z,22.39
2019-01-05T04:34:51.287Z,22.31
2019-01-05T04:37:32.051Z,22.61
2019-01-05T04:40:12.926Z,22.89
2019-01-05T04:42:54.092Z,23.24
2019-01-05T04:45:34.744Z,23.59
2019-01-05T04:48:15.744Z,23.61
2019-01-05T04:50:56.709Z,23.45
2019-01-05T04:53:37.676Z,23.61
2019-01-05T04:56:18.583Z,22.84
2019-01-05T04:58:59.630Z,22.58
2019-01-05T05:01:40.440Z,21.92
2019-01-05T05:04:20.901Z,22.34
2019-01-05T05:07:02.083Z,23.29
2019-01-05T05:09:42.403Z,23.21
2019-01-05T05:12:23.380Z,23.54
2019-01-05T05:15:03.746Z,23.51
2019-01-05T05:17:44.465Z,23.60
2019-01-05T05:20:24.780Z,23.27
2019-01-05T05:23:04.941Z,23.56
2019-01-05T05:25:45.671Z,23.25
2019-01-05T05:28:26.542Z,23.27
2019-01-05T05:31:06.900Z,23.42
2019-01-05T05:33:47.294Z,23.56
2019-01-05T05:36:28.166Z,23.93
2019-01-05T05:39:09.144Z,24.35
2019-01-05T05:41:49.993Z,24.80
2019-01-05T05:44:30.732Z,25.03
2019-01-05T05:47:11.721Z,25.02
2019-01-05T05:49:52.583Z,25.26
2019-01-05T06:52:07.210Z,26.72
2019-01-05T06:54:47.798Z,26.86
2019-01-05T06:57:27.994Z,27.21
2019-01-05T07:00:07.952Z,27.19
2019-01-05T07:02:48.390Z,27.54
2019-01-05T07:05:28.662Z,27.61
2019-01-05T07:08:08.702Z,27.45
2019-01-05T07:10:49.005Z,27.31
2019-01-05T07:13:29.034Z,27.01
2019-01-05T07:16:09.026Z,26.88
2019-01-05T07:18:49.075Z,27.09
2019-01-05T07:21:29.315Z,27.19
2019-01-05T07:24:10.081Z,27.29
2019-01-05T07:26:50.367Z,26.79
2019-01-05T07:29:30.227Z,27.02
2019-01-05T07:32:10.221Z,27.47
2019-01-05T07:34:50.915Z,27.33
2019-01-05T07:37:31.347Z,26.99
2019-01-05T07:40:14.959Z,27.02
2019-01-05T07:42:55.436Z,27.25
2019-01-05T07:45:36.052Z,27.24
2019-01-05T07:48:16.193Z,27.24
2019-01-05T07:50:56.383Z,26.78
2019-01-05T07:56:29.890Z,27.05
2019-01-05T07:59:10.043Z,27.05
2019-01-05T08:01:50.507Z,26.98
2019-01-05T08:04:32.095Z,26.72
2019-01-05T08:07:12.386Z,26.52
2019-01-05T08:09:53.036Z,26.52
2019-01-05T08:12:35.199Z,26.62
2019-01-05T08:15:15.276Z,26.57
2019-01-05T08:17:57.766Z,26.83
2019-01-05T08:20:38.847Z,26.88
2019-01-05T08:23:19.777Z,27.14
2019-01-05T08:25:59.732Z,27.45
2019-01-05T08:28:40.143Z,27.40
2019-01-05T08:31:21.015Z,27.44
2019-01-05T08:34:01.298Z,27.26
2019-01-05T08:36:41.775Z,27.22
2019-01-05T08:39:21.900Z,27.21
2019-01-05T08:42:02.218Z,27.24
2019-01-05T08:44:42.934Z,27.27
2019-01-05T08:47:23.291Z,27.40
2019-01-05T08:50:04.656Z,27.39
2019-01-05T08:52:45.822Z,27.32
2019-01-05T08:55:29.098Z,27.41
2019-01-05T08:58:12.261Z,27.47
2019-01-05T09:00:53.857Z,27.63
2019-01-05T09:03:34.494Z,27.61
2019-01-05T09:06:14.778Z,27.75
2019-01-05T09:08:55.713Z,28.06
2019-01-05T09:11:36.675Z,28.13
2019-01-05T09:14:17.282Z,28.17
2019-01-05T09:16:57.323Z,28.12
2019-01-05T09:19:37.733Z,28.24
2019-01-05T09:22:18.557Z,27.68
2019-01-05T09:24:58.854Z,27.95
2019-01-05T09:27:39.094Z,28.27
2019-01-05T09:30:19.662Z,28.21
2019-01-05T09:32:59.990Z,28.23
2019-01-05T09:35:40.397Z,28.25
2019-01-05T09:38:20.870Z,28.10
2019-01-05T09:41:01.021Z,28.12
2019-01-05T09:43:41.388Z,28.06
2019-01-05T09:46:21.466Z,27.94
2019-01-05T09:49:02.195Z,27.96
2019-01-05T09:51:42.853Z,28.05
2019-01-05T09:54:23.622Z,28.30
2019-01-05T09:57:04.649Z,28.45
2019-01-05T09:59:44.700Z,28.41
2019-01-05T10:02:25.231Z,28.32
2019-01-05T10:05:05.702Z,28.39
2019-01-05T10:07:46.591Z,28.23
2019-01-05T10:10:27.570Z,28.02
2019-01-05T10:13:07.570Z,27.77
2019-01-05T10:15:48.209Z,27.38
2019-01-05T10:18:28.275Z,27.02
2019-01-05T10:21:08.452Z,26.52
2019-01-05T10:23:49.220Z,26.14
2019-01-05T10:26:30.208Z,25.78
2019-01-05T10:29:11.065Z,25.48
2019-01-05T10:31:51.334Z,25.19
2019-01-05T10:34:31.831Z,24.93
2019-01-05T10:37:12.972Z,24.78
2019-01-05T10:39:53.345Z,24.66
2019-01-05T10:42:34.263Z,24.47
2019-01-05T10:45:14.461Z,24.43
2019-01-05T10:47:54.617Z,24.45
2019-01-05T10:50:35.267Z,24.62
2019-01-05T10:53:41.372Z,24.69
2019-01-05T10:56:22.026Z,24.53
2019-01-05T10:59:02.447Z,24.33
2019-01-05T11:01:43.735Z,24.14
2019-01-05T11:04:24.356Z,23.92
2019-01-05T11:07:07.796Z,23.69
2019-01-05T11:09:50.670Z,23.44
2019-01-05T11:12:31.099Z,23.20
2019-01-05T11:15:11.559Z,23.05
2019-01-05T11:17:55.588Z,22.88
2019-01-05T11:20:38.403Z,22.67
2019-01-05T11:23:18.852Z,22.55
2019-01-05T11:26:00.079Z,22.40
2019-01-05T11:28:40.698Z,22.08
2019-01-05T11:31:21.670Z,21.93
2019-01-05T11:34:02.598Z,21.74
2019-01-05T11:36:43.208Z,21.38
2019-01-05T11:39:23.881Z,21.32
2019-01-05T11:42:04.875Z,21.07
2019-01-05T11:44:45.719Z,20.91
2019-01-05T11:47:26.107Z,20.78
2019-01-05T11:50:07.425Z,20.66
2019-01-05T11:52:47.429Z,20.56
2019-01-05T11:55:29.172Z,20.41
2019-01-05T11:58:09.702Z,20.21
2019-01-05T12:00:50.330Z,19.98
2019-01-05T12:03:30.543Z,19.80
2019-01-05T12:06:11.615Z,19.68
2019-01-05T12:08:52.827Z,19.57
2019-01-05T12:11:33.876Z,19.43
2019-01-05T12:14:14.831Z,19.27
2019-01-05T12:16:55.102Z,19.13
2019-01-05T12:19:36.031Z,18.95
2019-01-05T12:22:16.745Z,18.88
2019-01-05T12:24:57.442Z,18.77
2019-01-05T12:27:38.606Z,18.63
2019-01-05T12:30:18.975Z,18.41
2019-01-05T12:32:59.962Z,18.35
2019-01-05T12:35:40.802Z,18.18
2019-01-05T12:38:21.012Z,18.12
2019-01-05T12:41:01.645Z,18.08
2019-01-05T12:43:42.391Z,17.93
2019-01-05T12:46:23.244Z,17.91
2019-01-05T12:49:07.390Z,17.81
2019-01-05T12:51:48.576Z,17.67
2019-01-05T12:54:29.656Z,17.58
2019-01-05T12:57:10.365Z,17.65
2019-01-05T12:59:51.601Z,17.61
2019-01-05T13:02:32.559Z,17.32
2019-01-05T13:05:12.938Z,17.07
2019-01-05T13:07:54.510Z,17.01
2019-01-05T13:10:35.225Z,16.97
2019-01-05T13:13:15.334Z,16.82
2019-01-05T13:15:56.316Z,16.68
2019-01-05T13:18:38.115Z,16.55
2019-01-05T13:21:19.439Z,16.55
2019-01-05T13:24:00.146Z,16.51
2019-01-05T13:26:40.347Z,16.47
2019-01-05T13:29:20.857Z,16.45
2019-01-05T13:32:01.878Z,16.37
2019-01-05T13:34:42.718Z,16.22
2019-01-05T13:37:23.677Z,16.14
2019-01-05T13:40:04.822Z,16.21
2019-01-05T13:42:45.187Z,16.23
2019-01-05T13:45:25.226Z,16.22
2019-01-05T13:48:07.231Z,16.15
2019-01-05T13:50:47.934Z,16.05
2019-01-05T13:53:28.997Z,16.05
2019-01-05T13:56:09.673Z,15.98
2019-01-05T13:58:51.137Z,15.93
2019-01-05T14:01:31.485Z,15.92
2019-01-05T14:04:13.353Z,15.91
2019-01-05T14:06:53.781Z,15.91
2019-01-05T14:09:34.638Z,15.94
2019-01-05T14:12:14.662Z,15.80
2019-01-05T14:14:54.552Z,15.69
2019-01-05T14:17:35.613Z,15.61
2019-01-05T14:20:16.287Z,15.56
2019-01-05T14:25:40.663Z,15.42
2019-01-05T14:31:05.884Z,15.40
2019-01-05T14:33:47.031Z,15.40
2019-01-05T14:55:31.752Z,15.14
2019-01-05T15:00:55.387Z,14.95
2019-01-05T15:03:36.037Z,15.01
2019-01-05T15:06:16.722Z,14.92
2019-01-05T15:08:57.260Z,14.79
2019-01-05T15:11:38.596Z,14.72
2019-01-05T15:14:19.266Z,14.63
2019-01-05T15:17:01.185Z,14.55
2019-01-05T15:19:41.827Z,14.51
2019-01-05T15:22:23.168Z,14.40
2019-01-05T15:25:03.033Z,14.32
2019-01-05T15:30:27.555Z,14.32
2019-01-05T15:33:07.942Z,14.27
2019-01-05T15:35:48.226Z,14.36
2019-01-05T15:41:15.218Z,13.87
2019-01-05T15:43:56.924Z,13.90
2019-01-05T15:46:42.398Z,13.94
2019-01-05T15:49:19.399Z,13.99
2019-01-05T15:52:00.417Z,14.01
2019-01-05T15:54:41.499Z,14.18
2019-01-05T15:57:22.657Z,14.28
2019-01-05T16:00:03.178Z,14.26
2019-01-05T16:02:45.978Z,14.11
2019-01-05T16:05:27.017Z,13.93
2019-01-05T16:08:07.111Z,13.79
2019-01-05T16:13:31.216Z,13.71
2019-01-05T16:16:12.837Z,13.65
2019-01-05T16:18:53.825Z,13.63
2019-01-05T16:21:34.256Z,13.65
2019-01-05T16:24:16.341Z,13.64
2019-01-05T16:26:59.141Z,13.69
2019-01-05T16:29:41.597Z,13.64
2019-01-05T16:35:08.881Z,13.47
2019-01-05T16:40:33.449Z,13.22
2019-01-05T16:48:41.121Z,13.27
2019-01-05T16:51:21.202Z,13.24
2019-01-05T16:54:01.359Z,13.21
2019-01-05T16:56:44.880Z,13.15
2019-01-05T16:59:26.102Z,13.10
2019-01-05T17:02:06.745Z,13.19
2019-01-05T17:04:47.693Z,13.08
2019-01-05T17:07:28.667Z,12.97
2019-01-05T17:10:09.435Z,13.00
2019-01-05T17:12:50.908Z,13.00
2019-01-05T17:15:31.881Z,13.00
2019-01-05T17:18:12.317Z,13.01
2019-01-05T17:20:53.340Z,13.08
2019-01-05T17:23:33.996Z,13.02
2019-01-05T17:26:15.391Z,13.00
2019-01-05T17:28:56.146Z,13.00
2019-01-05T17:31:37.415Z,13.04
2019-01-05T17:34:17.775Z,13.06
2019-01-05T17:36:58.433Z,13.04
2019-01-05T17:39:39.000Z,13.07
2019-01-05T17:47:49.207Z,13.13
2019-01-05T18:06:48.997Z,12.64
2019-01-05T18:09:29.014Z,12.71
2019-01-05T18:12:10.882Z,12.72
2019-01-05T18:17:35.103Z,12.72
2019-01-05T18:22:59.871Z,12.77
2019-01-05T18:25:39.787Z,12.79
2019-01-05T18:28:19.856Z,12.82
2019-01-05T18:30:59.844Z,12.84
2019-01-05T18:33:40.012Z,12.84
2019-01-05T18:36:20.825Z,12.83
2019-01-05T18:39:00.979Z,12.81
2019-01-05T18:47:14.806Z,12.68
2019-01-05T18:49:55.240Z,12.69
2019-01-05T18:52:35.584Z,12.57
2019-01-05T18:58:01.356Z,12.55
2019-01-05T19:00:42.545Z,12.51
2019-01-05T19:06:07.013Z,12.48
2019-01-05T19:08:47.720Z,12.43
2019-01-05T19:11:28.468Z,12.19
2019-01-05T19:14:10.853Z,12.10
2019-01-05T19:16:51.458Z,12.13
2019-01-05T19:19:32.520Z,12.12
2019-01-05T19:22:12.959Z,12.11
2019-01-05T19:24:53.134Z,12.14
2019-01-05T19:27:33.339Z,12.13
2019-01-05T19:30:13.885Z,12.20
2019-01-05T19:32:54.232Z,12.20
2019-01-05T19:35:34.757Z,12.14
2019-01-05T19:38:15.384Z,12.07
2019-01-05T19:40:55.775Z,11.90
2019-01-05T19:43:36.079Z,11.67
2019-01-05T19:46:16.984Z,11.72
2019-01-05T19:48:57.397Z,11.67
2019-01-05T19:51:38.314Z,11.59
2019-01-05T19:54:18.943Z,11.61
2019-01-05T19:56:59.349Z,11.60
2019-01-05T19:59:40.375Z,11.62
2019-01-05T20:02:20.612Z,11.63
2019-01-05T20:05:01.424Z,11.64
2019-01-05T20:07:41.423Z,11.64
2019-01-05T20:10:21.797Z,11.54
2019-01-05T20:13:01.799Z,11.51
2019-01-05T20:15:41.997Z,11.50
2019-01-05T20:18:22.426Z,11.40
2019-01-05T20:21:03.059Z,11.41
2019-01-05T20:23:43.799Z,11.40
2019-01-05T20:26:24.045Z,11.30
2019-01-05T20:29:04.221Z,11.28
2019-01-05T20:31:44.356Z,11.24
2019-01-05T20:34:24.518Z,11.25
2019-01-05T20:37:06.159Z,11.28
2019-01-05T20:39:46.027Z,11.27
2019-01-05T20:42:26.559Z,11.25
2019-01-05T20:45:07.229Z,11.13
2019-01-05T20:47:47.870Z,11.11
2019-01-05T20:50:28.546Z,11.19
2019-01-05T20:53:09.148Z,11.24
2019-01-05T20:55:49.574Z,11.22
2019-01-05T20:58:29.556Z,11.19
2019-01-05T21:01:09.586Z,11.20
2019-01-05T21:03:50.437Z,11.29
2019-01-05T21:06:30.423Z,11.31
2019-01-05T21:09:10.381Z,11.35
2019-01-05T21:11:51.072Z,11.33
2019-01-05T21:14:32.545Z,11.31
2019-01-05T21:17:12.990Z,11.27
2019-01-05T21:19:53.294Z,11.27
2019-01-05T21:22:33.620Z,11.21
2019-01-05T21:25:13.703Z,11.17
2019-01-05T21:27:53.963Z,11.12
2019-01-05T21:30:34.754Z,11.14
2019-01-05T21:33:14.799Z,11.10
2019-01-05T21:35:55.218Z,11.13
2019-01-05T21:38:35.259Z,11.19
2019-01-05T21:41:15.228Z,11.22
2019-01-05T21:43:55.546Z,11.25
2019-01-05T21:46:35.733Z,11.15
2019-01-05T21:49:15.961Z,11.20
2019-01-05T21:51:56.838Z,11.33
2019-01-05T21:54:36.907Z,11.30
2019-01-05T21:57:16.828Z,11.14
2019-01-05T21:59:56.816Z,11.05
2019-01-05T22:02:37.461Z,10.99
2019-01-05T22:05:17.473Z,10.91
2019-01-05T22:07:57.864Z,10.87
2019-01-05T22:10:37.945Z,10.92
2019-01-05T22:13:18.163Z,10.95
2019-01-05T22:15:58.463Z,10.97
2019-01-05T22:18:38.983Z,11.02
2019-01-05T22:21:19.459Z,11.00
2019-01-05T22:24:00.146Z,11.01
2019-01-05T22:26:40.494Z,11.03
2019-01-05T22:29:20.658Z,11.04
2019-01-05T22:32:01.028Z,11.05
2019-01-05T22:34:41.360Z,11.10
2019-01-05T22:37:22.039Z,11.12
2019-01-05T22:40:02.518Z,11.12
2019-01-05T22:42:43.174Z,11.11
2019-01-05T22:45:23.549Z,11.07
2019-01-05T22:48:03.988Z,11.11
2019-01-05T22:50:44.567Z,11.14
2019-01-05T22:53:25.241Z,11.04
2019-01-05T22:56:05.549Z,10.99
2019-01-05T22:58:46.097Z,10.95
2019-01-05T23:01:26.914Z,10.95
2019-01-05T23:04:07.912Z,10.97
2019-01-05T23:06:48.269Z,10.98
2019-01-05T23:09:29.015Z,10.95
2019-01-05T23:12:09.464Z,10.91
2019-01-05T23:14:50.040Z,10.90
2019-01-05T23:17:30.948Z,10.92
2019-01-05T23:20:11.588Z,10.90
2019-01-05T23:22:52.249Z,10.90
2019-01-05T23:25:32.869Z,10.88
2019-01-05T23:28:13.253Z,10.84
2019-01-05T23:30:54.144Z,10.81
2019-01-05T23:33:35.066Z,10.76
2019-01-05T23:36:16.434Z,10.72
2019-01-05T23:38:56.720Z,10.67
2019-01-05T23:41:37.124Z,10.64
2019-01-05T23:44:17.576Z,10.63
2019-01-05T23:46:58.345Z,10.65
2019-01-05T23:49:38.588Z,10.57
2019-01-05T23:52:19.227Z,10.48
2019-01-05T23:55:00.278Z,10.47
2019-01-05T23:57:40.642Z,10.44
